Amherst, Ohio
Current Conditions -  °F | °C
As of 3:53 AM on Sunday 26 Oct 2014 (Local Time) from KLPR Reporting Station
Clear Clear  
Wind Chill: 52°   Ceiling: Unl
Heat Index: 52°   Visibility: 10mi
Dew Point: 38°   Wind: 12mph
Humidity: 59%   Direction: 330°NNW
Pressure: 29.86"   Gusts: NA
Location:  41.41°N, 82.24°W
Report Text: KLPR 260753Z AUTO 33010KT 10SM CLR 11/03 A2986 RMK AO2 SLP108 T01110033 PWINO TSNO $
Loading
Personal Weather Stations






























Interactive Weather Map
Tropical Storm Tracking
New forecast layout! Learn more

10-Day Weather Forecast

Advertisements
Track Severe Weather on mobile